TimeMDT,TemperatureF,Dew PointF,Humidity,Sea Level PressureIn,VisibilityMPH,Wind Direction,Wind SpeedMPH,Gust SpeedMPH,PrecipitationIn,Events,Conditions,WindDirDegrees,DateUTC
12:12 AM,28.4,21.2,74,30.58,-9999.0,South,4.6,-,N/A,,Clear,180,2013-04-27 06:12:00
12:32 AM,28.4,21.2,74,30.58,-9999.0,SSW,4.6,-,N/A,,Clear,200,2013-04-27 06:32:00
12:52 AM,28.4,23.0,80,30.58,-9999.0,SW,8.1,-,N/A,,Clear,230,2013-04-27 06:52:00
1:12 AM,26.6,23.0,86,30.57,-9999.0,SSW,11.5,-,N/A,,Unknown,210,2013-04-27 07:12:00
1:32 AM,26.6,23.0,86,30.57,-9999.0,SSW,12.7,-,N/A,,Unknown,210,2013-04-27 07:32:00
1:52 AM,28.4,21.2,74,30.56,-9999.0,SSW,9.2,-,N/A,,Clear,210,2013-04-27 07:52:00
2:12 AM,26.6,21.2,80,30.56,-9999.0,SW,12.7,-,N/A,,Clear,220,2013-04-27 08:12:00
2:32 AM,26.6,21.2,80,30.55,-9999.0,SW,13.8,-,N/A,,Clear,230,2013-04-27 08:32:00
2:52 AM,26.6,21.2,80,30.55,-9999.0,SW,13.8,-,N/A,,Clear,230,2013-04-27 08:52:00
3:12 AM,26.6,21.2,80,30.54,-9999.0,WSW,15.0,-,N/A,,Clear,240,2013-04-27 09:12:00
3:32 AM,26.6,21.2,80,30.54,-9999.0,WSW,13.8,-,N/A,,Clear,240,2013-04-27 09:32:00
3:52 AM,26.6,21.2,80,30.55,-9999.0,WSW,13.8,-,N/A,,Clear,250,2013-04-27 09:52:00
4:12 AM,26.6,19.4,74,30.55,-9999.0,West,13.8,-,N/A,,Clear,260,2013-04-27 10:12:00
4:32 AM,26.6,19.4,74,30.55,-9999.0,West,13.8,-,N/A,,Clear,270,2013-04-27 10:32:00
4:52 AM,26.6,19.4,74,30.55,-9999.0,West,15.0,-,N/A,,Clear,270,2013-04-27 10:52:00
5:12 AM,26.6,19.4,74,30.54,-9999.0,West,13.8,-,N/A,,Clear,270,2013-04-27 11:12:00
5:32 AM,26.6,19.4,74,30.54,-9999.0,West,13.8,-,N/A,,Clear,260,2013-04-27 11:32:00
5:52 AM,26.6,19.4,74,30.54,-9999.0,WSW,15.0,-,N/A,,Clear,250,2013-04-27 11:52:00
6:12 AM,26.6,19.4,74,30.55,-9999.0,WSW,11.5,-,N/A,,Clear,240,2013-04-27 12:12:00
6:32 AM,26.6,21.2,80,30.56,-9999.0,WSW,9.2,-,N/A,,Clear,240,2013-04-27 12:32:00
6:52 AM,28.4,19.4,69,30.56,-9999.0,WSW,5.8,-,N/A,,Clear,250,2013-04-27 12:52:00
7:12 AM,28.4,19.4,69,30.56,-9999.0,West,5.8,-,N/A,,Clear,260,2013-04-27 13:12:00
7:32 AM,28.4,15.8,59,30.56,-9999.0,West,6.9,-,N/A,,Clear,270,2013-04-27 13:32:00
7:52 AM,28.4,17.6,64,30.57,-9999.0,WSW,3.5,-,N/A,,Clear,250,2013-04-27 13:52:00
8:12 AM,30.2,14.0,51,30.58,-9999.0,West,3.5,-,N/A,,Clear,270,2013-04-27 14:12:00
8:32 AM,30.2,12.2,47,30.58,-9999.0,West,4.6,-,N/A,,Clear,270,2013-04-27 14:32:00
8:52 AM,32.0,10.4,41,30.57,-9999.0,West,3.5,-,N/A,,Clear,280,2013-04-27 14:52:00
9:12 AM,32.0,8.6,38,30.57,-9999.0,North,12.7,17.3,N/A,,Clear,350,2013-04-27 15:12:00
9:32 AM,32.0,10.4,41,30.57,-9999.0,NNW,16.1,24.2,N/A,,Clear,330,2013-04-27 15:32:00
9:52 AM,32.0,10.4,41,30.57,-9999.0,NNE,15.0,24.2,N/A,,Clear,30,2013-04-27 15:52:00
10:12 AM,33.8,14.0,44,30.58,-9999.0,North,6.9,17.3,N/A,,Clear,10,2013-04-27 16:12:00
10:32 AM,33.8,14.0,44,30.58,-9999.0,WSW,10.4,-,N/A,,Clear,250,2013-04-27 16:32:00
10:52 AM,33.8,17.6,52,30.58,-9999.0,West,11.5,-,N/A,,Clear,270,2013-04-27 16:52:00
11:12 AM,35.6,17.6,48,30.59,-9999.0,SW,6.9,-,N/A,,Clear,230,2013-04-27 17:12:00
11:32 AM,35.6,14.0,41,30.59,-9999.0,Calm,Calm,-,N/A,,Scattered Clouds,0,2013-04-27 17:32:00
11:52 AM,37.4,17.6,45,30.58,-9999.0,West,12.7,16.1,N/A,,Scattered Clouds,260,2013-04-27 17:52:00
12:12 PM,37.4,17.6,45,30.58,-9999.0,WSW,15.0,20.7,N/A,,Scattered Clouds,250,2013-04-27 18:12:00
12:32 PM,37.4,15.8,41,30.58,-9999.0,WSW,12.7,19.6,N/A,,Scattered Clouds,250,2013-04-27 18:32:00
12:52 PM,37.4,14.0,38,30.58,-9999.0,West,8.1,-,N/A,,Scattered Clouds,270,2013-04-27 18:52:00
1:12 PM,39.2,14.0,36,30.57,-9999.0,West,8.1,16.1,N/A,,Mostly Cloudy,280,2013-04-27 19:12:00
1:32 PM,41.0,14.0,33,30.56,-9999.0,WSW,13.8,26.5,N/A,,Mostly Cloudy,240,2013-04-27 19:32:00
1:52 PM,41.0,12.2,31,30.56,-9999.0,West,17.3,21.9,N/A,,Overcast,270,2013-04-27 19:52:00
2:12 PM,41.0,12.2,31,30.56,-9999.0,West,9.2,20.7,N/A,,Scattered Clouds,260,2013-04-27 20:12:00
2:32 PM,41.0,12.2,31,30.55,-9999.0,SW,11.5,28.8,N/A,,Scattered Clouds,230,2013-04-27 20:32:00
2:52 PM,44.6,8.6,23,30.55,-9999.0,WNW,8.1,17.3,N/A,,Scattered Clouds,300,2013-04-27 20:52:00
3:12 PM,42.8,8.6,25,30.55,-9999.0,Calm,Calm,-,N/A,,Clear,0,2013-04-27 21:12:00
3:32 PM,42.8,10.4,27,30.54,-9999.0,West,10.4,-,N/A,,Scattered Clouds,260,2013-04-27 21:32:00
3:52 PM,44.6,8.6,23,30.53,-9999.0,North,8.1,17.3,N/A,,Scattered Clouds,10,2013-04-27 21:52:00
4:12 PM,42.8,8.6,25,30.53,-9999.0,NW,8.1,16.1,N/A,,Clear,310,2013-04-27 22:12:00
4:32 PM,42.8,8.6,25,30.53,-9999.0,NNW,6.9,16.1,N/A,,Clear,330,2013-04-27 22:32:00
4:52 PM,42.8,8.6,25,30.53,-9999.0,NW,9.2,-,N/A,,Scattered Clouds,320,2013-04-27 22:52:00
5:12 PM,44.6,10.4,25,30.53,-9999.0,WNW,17.3,24.2,N/A,,Clear,290,2013-04-27 23:12:00
5:32 PM,44.6,6.8,21,30.53,-9999.0,WNW,9.2,16.1,N/A,,Clear,300,2013-04-27 23:32:00
5:52 PM,44.6,5.0,20,30.53,-9999.0,WNW,12.7,23.0,N/A,,Clear,300,2013-04-27 23:52:00
6:12 PM,42.8,6.8,23,30.53,-9999.0,WNW,12.7,-,N/A,,Clear,300,2013-04-28 00:12:00
6:32 PM,42.8,8.6,25,30.53,-9999.0,NNW,10.4,-,N/A,,Clear,330,2013-04-28 00:32:00
6:52 PM,41.0,8.6,26,30.53,-9999.0,West,18.4,25.3,N/A,,Clear,280,2013-04-28 00:52:00
7:12 PM,41.0,8.6,26,30.53,-9999.0,WNW,15.0,-,N/A,,Clear,290,2013-04-28 01:12:00
7:32 PM,39.2,8.6,28,30.53,-9999.0,WNW,12.7,-,N/A,,Clear,300,2013-04-28 01:32:00
7:52 PM,37.4,6.8,28,30.53,-9999.0,WNW,11.5,-,N/A,,Clear,290,2013-04-28 01:52:00
8:12 PM,35.6,6.8,30,30.53,-9999.0,WNW,9.2,-,N/A,,Clear,300,2013-04-28 02:12:00
8:32 PM,35.6,5.0,28,30.53,-9999.0,WNW,9.2,-,N/A,,Clear,300,2013-04-28 02:32:00
8:52 PM,35.6,5.0,28,30.53,-9999.0,NW,10.4,-,N/A,,Clear,320,2013-04-28 02:52:00
9:12 PM,35.6,6.8,30,30.54,-9999.0,NW,10.4,-,N/A,,Clear,320,2013-04-28 03:12:00
9:32 PM,35.6,8.6,33,30.55,-9999.0,NNW,10.4,-,N/A,,Clear,330,2013-04-28 03:32:00
9:52 PM,33.8,8.6,35,30.55,-9999.0,NNW,10.4,16.1,N/A,,Clear,330,2013-04-28 03:52:00
10:12 PM,33.8,8.6,35,30.55,-9999.0,NW,10.4,-,N/A,,Clear,320,2013-04-28 04:12:00
10:32 PM,33.8,10.4,38,30.55,-9999.0,WNW,6.9,-,N/A,,Clear,300,2013-04-28 04:32:00
10:52 PM,32.0,10.4,41,30.55,-9999.0,NW,6.9,-,N/A,,Clear,310,2013-04-28 04:52:00
11:12 PM,32.0,10.4,41,30.54,-9999.0,NW,10.4,-,N/A,,Clear,310,2013-04-28 05:12:00
11:32 PM,32.0,10.4,41,30.53,-9999.0,NW,10.4,-,N/A,,Clear,320,2013-04-28 05:32:00
11:52 PM,33.8,10.4,38,30.53,-9999.0,NW,11.5,-,N/A,,Clear,320,2013-04-28 05:52:00